createdAt,value
2023-01-05T00:02:00.030Z,10.27
2023-01-05T00:04:29.801Z,10.28
2023-01-05T00:06:59.596Z,10.27
2023-01-05T00:09:30.055Z,10.25
2023-01-05T00:12:12.195Z,10.27
2023-01-05T00:14:56.938Z,10.27
2023-01-05T00:17:40.629Z,10.28
2023-01-05T00:20:30.226Z,10.26
2023-01-05T00:23:00.210Z,10.25
2023-01-05T00:25:31.901Z,10.24
2023-01-05T00:28:01.785Z,10.25
2023-01-05T00:30:37.081Z,10.23
2023-01-05T00:33:06.955Z,10.24
2023-01-05T00:35:36.719Z,10.25
2023-01-05T00:38:06.430Z,10.23
2023-01-05T00:40:37.492Z,10.21
2023-01-05T00:43:07.482Z,10.21
2023-01-05T00:45:39.905Z,10.22
2023-01-05T00:48:09.701Z,10.18
2023-01-05T00:50:39.483Z,10.18
2023-01-05T00:53:09.206Z,10.17
2023-01-05T00:55:38.926Z,10.18
2023-01-05T00:58:08.646Z,10.19
2023-01-05T01:00:47.449Z,10.19
2023-01-05T01:03:17.677Z,10.17
2023-01-05T01:05:47.619Z,10.17
2023-01-05T01:08:17.363Z,10.17
2023-01-05T01:10:47.100Z,10.19
2023-01-05T01:13:16.839Z,10.21
2023-01-05T01:15:49.225Z,10.22
2023-01-05T01:18:19.125Z,10.20
2023-01-05T01:20:48.885Z,10.20
2023-01-05T01:23:18.664Z,10.19
2023-01-05T01:25:48.397Z,10.20
2023-01-05T01:28:18.188Z,10.20
2023-01-05T01:30:50.747Z,10.23
2023-01-05T01:33:20.803Z,10.22
2023-01-05T01:35:53.153Z,10.23
2023-01-05T01:38:23.026Z,10.24
2023-01-05T01:40:53.420Z,10.23
2023-01-05T01:43:49.728Z,10.24
2023-01-05T01:46:23.899Z,10.22
2023-01-05T01:48:57.590Z,10.22
2023-01-05T01:51:32.923Z,10.21
2023-01-05T01:54:07.227Z,10.22
2023-01-05T01:56:41.688Z,10.24
2023-01-05T01:59:12.312Z,10.24
2023-01-05T02:01:44.862Z,10.25
2023-01-05T02:04:14.970Z,10.23
2023-01-05T02:06:44.877Z,10.22
2023-01-05T02:09:14.671Z,10.22
2023-01-05T02:11:53.298Z,10.24
2023-01-05T02:14:35.759Z,10.26
2023-01-05T02:17:19.256Z,10.27
2023-01-05T02:20:26.826Z,10.30
2023-01-05T02:23:32.502Z,10.30
2023-01-05T02:26:20.803Z,10.28
2023-01-05T02:29:15.227Z,10.29
2023-01-05T02:31:51.496Z,10.30
2023-01-05T02:34:27.078Z,10.29
2023-01-05T02:37:01.623Z,10.29
2023-01-05T02:39:36.709Z,10.29
2023-01-05T02:42:08.906Z,10.26
2023-01-05T02:44:38.893Z,10.29
2023-01-05T02:47:41.239Z,10.29
2023-01-05T02:50:17.416Z,10.27
2023-01-05T02:52:54.678Z,10.25
2023-01-05T02:55:29.225Z,10.27
2023-01-05T02:58:04.169Z,10.27
2023-01-05T03:00:38.893Z,10.27
2023-01-05T03:03:16.231Z,10.27
2023-01-05T03:05:53.065Z,10.27
2023-01-05T03:08:32.357Z,10.25
2023-01-05T03:11:18.407Z,10.26
2023-01-05T03:13:51.665Z,10.27
2023-01-05T03:16:25.929Z,10.26
2023-01-05T03:19:12.301Z,10.27
2023-01-05T03:21:54.903Z,10.25
2023-01-05T03:24:37.220Z,10.25
2023-01-05T03:27:21.873Z,10.25
2023-01-05T03:30:04.045Z,10.27
2023-01-05T03:32:49.640Z,10.26
2023-01-05T03:35:34.550Z,10.26
2023-01-05T03:38:18.032Z,10.28
2023-01-05T03:40:49.375Z,10.27
2023-01-05T03:43:19.486Z,10.27
2023-01-05T03:45:54.977Z,10.26
2023-01-05T03:48:26.997Z,10.25
2023-01-05T03:50:59.514Z,10.28
2023-01-05T03:53:29.352Z,10.32
2023-01-05T03:55:59.150Z,10.33
2023-01-05T03:58:29.432Z,10.33
2023-01-05T04:00:59.234Z,10.32
2023-01-05T04:03:31.969Z,10.32
2023-01-05T04:06:04.815Z,10.34
2023-01-05T04:08:34.609Z,10.35
2023-01-05T04:11:14.490Z,10.37
2023-01-05T04:13:44.347Z,10.37
2023-01-05T04:16:14.611Z,10.38
2023-01-05T04:18:44.599Z,10.39
2023-01-05T04:21:17.002Z,10.40
2023-01-05T04:23:46.713Z,10.41
2023-01-05T04:26:16.461Z,10.41
2023-01-05T04:28:46.221Z,10.42
2023-01-05T04:31:15.981Z,10.41
2023-01-05T04:33:45.950Z,10.44
2023-01-05T04:36:19.843Z,10.44
2023-01-05T04:38:49.731Z,10.45
2023-01-05T04:41:19.602Z,10.46
2023-01-05T04:43:56.075Z,10.46
2023-01-05T04:46:25.932Z,10.44
2023-01-05T04:48:57.360Z,10.43
2023-01-05T04:51:29.941Z,10.42
2023-01-05T04:53:59.835Z,10.44
2023-01-05T04:56:29.723Z,10.43
2023-01-05T04:58:59.530Z,10.40
2023-01-05T05:01:29.449Z,10.40
2023-01-05T05:03:59.296Z,10.42
2023-01-05T05:06:31.909Z,10.41
2023-01-05T05:09:01.690Z,10.37
2023-01-05T05:11:31.462Z,10.37
2023-01-05T05:14:01.354Z,10.37
2023-01-05T05:16:31.224Z,10.38
2023-01-05T05:19:01.166Z,10.37
2023-01-05T05:21:33.790Z,10.38
2023-01-05T05:24:03.610Z,10.38
2023-01-05T05:26:45.416Z,10.35
2023-01-05T05:29:15.611Z,10.36
2023-01-05T05:31:45.828Z,10.37
2023-01-05T05:34:15.641Z,10.36
2023-01-05T05:36:48.441Z,10.36
2023-01-05T05:39:19.568Z,10.38
2023-01-05T05:41:49.453Z,10.38
2023-01-05T05:44:19.325Z,10.38
2023-01-05T05:46:49.407Z,10.38
2023-01-05T05:49:19.443Z,10.38
2023-01-05T05:51:52.025Z,10.38
2023-01-05T05:54:21.883Z,10.35
2023-01-05T05:56:52.810Z,10.34
2023-01-05T05:59:22.715Z,10.34
2023-01-05T06:01:53.044Z,10.33
2023-01-05T06:04:23.088Z,10.32
2023-01-05T06:06:55.522Z,10.30
2023-01-05T06:09:25.255Z,10.28
2023-01-05T06:11:55.107Z,10.25
2023-01-05T06:14:24.926Z,10.23
2023-01-05T06:16:54.683Z,10.24
2023-01-05T06:19:24.556Z,10.23
2023-01-05T06:21:57.042Z,10.25
2023-01-05T06:24:26.773Z,10.25
2023-01-05T06:26:56.872Z,10.26
2023-01-05T06:29:26.668Z,10.26
2023-01-05T06:31:56.597Z,10.25
2023-01-05T06:34:26.489Z,10.24
2023-01-05T06:37:02.246Z,10.26
2023-01-05T06:39:32.531Z,10.25
2023-01-05T06:42:02.326Z,10.28
2023-01-05T06:44:32.171Z,10.29
2023-01-05T06:47:02.284Z,10.27
2023-01-05T06:49:32.154Z,10.27
2023-01-05T06:52:04.628Z,10.28
2023-01-05T06:54:34.424Z,10.29
2023-01-05T06:57:04.504Z,10.29
2023-01-05T06:59:34.444Z,10.30
2023-01-05T07:02:04.330Z,10.29
2023-01-05T07:04:34.166Z,10.30
2023-01-05T07:07:06.725Z,10.29
2023-01-05T07:09:36.658Z,10.29
2023-01-05T07:12:06.756Z,10.27
2023-01-05T07:14:37.487Z,10.27
2023-01-05T07:17:07.279Z,10.28
2023-01-05T07:19:38.595Z,10.27
2023-01-05T07:22:11.422Z,10.25
2023-01-05T07:24:41.282Z,10.24
2023-01-05T07:27:11.180Z,10.22
2023-01-05T07:29:41.055Z,10.21
2023-01-05T07:32:10.949Z,10.21
2023-01-05T07:34:40.805Z,10.19
2023-01-05T07:37:13.351Z,10.19
2023-01-05T07:39:43.182Z,10.18
2023-01-05T07:42:13.717Z,10.19
2023-01-05T07:44:43.531Z,10.18
2023-01-05T07:47:13.400Z,10.21
2023-01-05T07:49:43.216Z,10.22
2023-01-05T07:52:15.577Z,10.22
2023-01-05T07:54:45.416Z,10.23
2023-01-05T07:57:15.134Z,10.24
2023-01-05T07:59:45.101Z,10.24
2023-01-05T08:02:14.934Z,10.26
2023-01-05T08:04:44.849Z,10.28
2023-01-05T08:07:17.406Z,10.24
2023-01-05T08:09:59.611Z,10.26
2023-01-05T08:12:31.128Z,10.28
2023-01-05T08:15:00.973Z,10.29
2023-01-05T08:17:30.694Z,10.30
2023-01-05T08:20:00.388Z,10.30
2023-01-05T08:22:32.782Z,10.29
2023-01-05T08:25:02.522Z,10.27
2023-01-05T08:27:32.298Z,10.27
2023-01-05T08:30:02.044Z,10.26
2023-01-05T08:32:31.784Z,10.26
2023-01-05T08:35:01.500Z,10.23
2023-01-05T08:37:33.817Z,10.20
2023-01-05T08:40:03.557Z,10.18
2023-01-05T08:42:33.314Z,10.15
2023-01-05T08:45:03.109Z,10.13
2023-01-05T08:47:32.905Z,10.12
2023-01-05T08:50:03.614Z,10.08
2023-01-05T08:52:36.181Z,10.05
2023-01-05T08:55:06.274Z,10.04
2023-01-05T08:57:36.379Z,10.07
2023-01-05T09:00:07.019Z,10.05
2023-01-05T09:02:36.981Z,10.04
2023-01-05T09:05:07.174Z,10.03
2023-01-05T09:07:39.588Z,10.07
2023-01-05T09:10:10.405Z,10.07
2023-01-05T09:12:40.778Z,10.09
2023-01-05T09:15:11.189Z,10.09
2023-01-05T09:17:41.015Z,10.10
2023-01-05T09:20:12.122Z,10.06
2023-01-05T09:22:45.146Z,10.07
2023-01-05T09:25:14.901Z,10.09
2023-01-05T09:27:44.653Z,10.12
2023-01-05T09:30:17.556Z,10.13
2023-01-05T09:32:47.337Z,10.13
2023-01-05T09:35:17.172Z,10.16
2023-01-05T09:37:50.192Z,10.19
2023-01-05T09:40:19.983Z,10.22
2023-01-05T09:42:50.242Z,10.26
2023-01-05T09:45:27.832Z,10.27
2023-01-05T09:48:00.187Z,10.27
2023-01-05T09:50:33.660Z,10.28
2023-01-05T09:53:06.284Z,10.28
2023-01-05T09:55:36.554Z,10.26
2023-01-05T09:58:13.972Z,10.25
2023-01-05T10:00:47.959Z,10.25
2023-01-05T10:04:01.679Z,10.26
2023-01-05T10:06:20.136Z,10.25
2023-01-05T10:08:54.719Z,10.25
2023-01-05T10:11:44.532Z,10.27
2023-01-05T10:14:19.332Z,10.29
2023-01-05T10:16:57.777Z,10.31
2023-01-05T10:19:37.616Z,10.31
2023-01-05T10:22:18.790Z,10.33
2023-01-05T10:24:58.112Z,10.35
2023-01-05T10:27:32.901Z,10.38
2023-01-05T10:30:14.935Z,10.39
2023-01-05T10:33:27.425Z,10.40
2023-01-05T10:36:07.385Z,10.42
2023-01-05T10:38:52.833Z,10.42
2023-01-05T10:41:33.143Z,10.42
2023-01-05T10:44:33.343Z,10.44
2023-01-05T10:47:03.508Z,10.44
2023-01-05T10:49:35.101Z,10.43
2023-01-05T10:52:06.274Z,10.45
2023-01-05T10:54:41.595Z,10.46
2023-01-05T10:57:42.468Z,10.48
2023-01-05T11:00:18.172Z,10.50
2023-01-05T11:02:53.865Z,10.52
2023-01-05T11:05:33.586Z,10.54
2023-01-05T11:08:07.518Z,10.53
2023-01-05T11:10:41.195Z,10.50
2023-01-05T11:13:25.394Z,10.49
2023-01-05T11:16:02.677Z,10.48
2023-01-05T11:18:37.263Z,10.46
2023-01-05T11:21:16.531Z,10.44
2023-01-05T11:23:47.993Z,10.44
2023-01-05T11:26:25.758Z,10.48
2023-01-05T11:29:03.960Z,10.48
2023-01-05T11:31:43.224Z,10.49
2023-01-05T11:34:28.650Z,10.51
2023-01-05T11:37:07.548Z,10.54
2023-01-05T11:39:44.750Z,10.54
2023-01-05T11:42:24.650Z,10.55
2023-01-05T11:45:20.847Z,10.59
2023-01-05T11:47:57.337Z,10.59
2023-01-05T11:50:29.741Z,10.59
2023-01-05T11:53:01.537Z,10.63
2023-01-05T11:55:40.137Z,10.63
2023-01-05T11:58:26.763Z,10.64
2023-01-05T12:01:29.472Z,10.67
2023-01-05T12:04:16.891Z,10.72
2023-01-05T12:07:09.942Z,10.76
2023-01-05T12:09:42.548Z,10.81
2023-01-05T12:12:35.396Z,10.85
2023-01-05T12:15:32.788Z,10.90
2023-01-05T12:18:19.813Z,10.95
2023-01-05T12:20:59.515Z,11.02
2023-01-05T12:23:43.198Z,11.07
2023-01-05T12:26:23.402Z,11.09
2023-01-05T12:35:36.021Z,11.10
2023-01-05T12:38:34.097Z,11.10
2023-01-05T12:41:37.450Z,11.11
2023-01-05T12:44:24.193Z,11.11
2023-01-05T12:47:10.932Z,11.10
2023-01-05T12:49:45.837Z,11.12
2023-01-05T12:52:22.405Z,11.15
2023-01-05T12:54:59.774Z,11.17
2023-01-05T12:57:37.600Z,11.19
2023-01-05T13:00:14.272Z,11.19
2023-01-05T13:02:47.403Z,11.20
2023-01-05T13:05:24.076Z,11.22
2023-01-05T13:08:03.677Z,11.22
2023-01-05T13:10:42.500Z,11.22
2023-01-05T13:13:16.823Z,11.22
2023-01-05T13:15:55.696Z,11.22
2023-01-05T13:18:28.635Z,11.17
2023-01-05T13:21:01.534Z,11.17
2023-01-05T13:23:35.297Z,11.18
2023-01-05T13:26:11.051Z,11.15
2023-01-05T13:28:40.954Z,11.12
2023-01-05T13:31:41.687Z,11.09
2023-01-05T13:34:42.654Z,11.07
2023-01-05T13:37:45.543Z,11.03
2023-01-05T13:40:37.429Z,11.01
2023-01-05T13:43:48.638Z,11.01
2023-01-05T13:46:44.630Z,11.00
2023-01-05T13:49:30.979Z,10.99
2023-01-05T13:52:03.310Z,10.99
2023-01-05T13:55:00.085Z,10.99
2023-01-05T13:57:33.025Z,10.99
2023-01-05T14:00:10.358Z,11.01
2023-01-05T14:02:47.212Z,11.00
2023-01-05T14:05:26.769Z,11.02
2023-01-05T14:07:58.608Z,11.02
2023-01-05T14:10:31.457Z,11.04
2023-01-05T14:13:03.646Z,11.07
2023-01-05T14:15:44.696Z,11.08
2023-01-05T14:18:55.382Z,11.11
2023-01-05T14:22:03.785Z,11.12
2023-01-05T14:24:36.949Z,11.10
2023-01-05T14:27:10.175Z,11.11
2023-01-05T14:30:12.366Z,11.12
2023-01-05T14:32:45.045Z,11.12
2023-01-05T14:35:31.859Z,11.11
2023-01-05T14:38:05.073Z,11.11
2023-01-05T14:40:38.839Z,11.11
2023-01-05T14:43:23.383Z,11.10
2023-01-05T14:46:07.267Z,11.11
2023-01-05T14:48:40.707Z,11.10
2023-01-05T14:51:20.586Z,11.11
2023-01-05T14:53:52.645Z,11.10
2023-01-05T14:56:28.476Z,11.11
2023-01-05T14:59:02.827Z,11.12
2023-01-05T15:04:14.377Z,11.11
2023-01-05T15:07:03.848Z,11.09
2023-01-05T15:10:06.026Z,11.09
2023-01-05T15:13:05.470Z,11.08
2023-01-05T15:15:45.772Z,11.07
2023-01-05T15:18:48.580Z,11.08
2023-01-05T15:21:53.120Z,11.07
2023-01-05T15:25:02.805Z,11.08
2023-01-05T15:28:08.071Z,11.10
2023-01-05T15:31:00.481Z,11.10
2023-01-05T15:33:37.935Z,11.10
2023-01-05T15:36:09.730Z,11.10
2023-01-05T15:38:47.379Z,11.12
2023-01-05T15:41:22.817Z,11.10
2023-01-05T15:43:54.091Z,11.11
2023-01-05T15:46:26.625Z,11.10
2023-01-05T15:48:57.511Z,11.11
2023-01-05T15:51:30.110Z,11.11
2023-01-05T15:54:02.011Z,11.09
2023-01-05T15:56:39.750Z,11.08
2023-01-05T15:59:24.899Z,11.07
2023-01-05T16:01:54.797Z,11.05
2023-01-05T16:04:28.417Z,11.06
2023-01-05T16:07:03.664Z,11.08
2023-01-05T16:09:35.917Z,11.09
2023-01-05T16:12:23.365Z,11.08
2023-01-05T16:14:57.954Z,11.07
2023-01-05T16:17:31.006Z,11.06
2023-01-05T16:20:04.390Z,11.08
2023-01-05T16:22:41.859Z,11.10
2023-01-05T16:25:18.566Z,11.08
2023-01-05T16:27:58.619Z,11.08
2023-01-05T16:30:34.348Z,11.09
2023-01-05T16:33:11.595Z,11.09
2023-01-05T16:35:47.070Z,11.10
2023-01-05T16:38:28.402Z,11.09
2023-01-05T16:41:19.222Z,11.10
2023-01-05T16:43:55.635Z,11.08
2023-01-05T16:46:37.422Z,11.08
2023-01-05T16:49:26.769Z,11.07
2023-01-05T16:51:57.931Z,11.06
2023-01-05T16:54:37.049Z,11.04
2023-01-05T16:57:24.866Z,11.05
2023-01-05T17:00:00.242Z,11.04
2023-01-05T17:02:49.162Z,11.04
2023-01-05T17:05:22.219Z,11.03
2023-01-05T17:07:55.442Z,11.04
2023-01-05T17:10:27.887Z,11.02
2023-01-05T17:13:15.142Z,11.01
2023-01-05T17:15:56.299Z,10.99
2023-01-05T17:18:28.851Z,10.97
2023-01-05T17:21:01.018Z,10.96
2023-01-05T17:23:32.900Z,10.95
2023-01-05T17:26:09.033Z,10.94
2023-01-05T17:28:42.028Z,10.93
2023-01-05T17:31:15.771Z,10.91
2023-01-05T17:33:45.583Z,10.88
2023-01-05T17:38:46.587Z,10.88
2023-01-05T17:41:17.438Z,10.86
2023-01-05T17:43:47.617Z,10.83
2023-01-05T17:46:23.477Z,10.80
2023-01-05T17:48:53.389Z,10.80
2023-01-05T17:51:23.352Z,10.80
2023-01-05T17:53:53.111Z,10.79
2023-01-05T17:56:23.019Z,10.79
2023-01-05T17:58:53.277Z,10.80
2023-01-05T18:01:27.208Z,10.78
2023-01-05T18:03:57.401Z,10.76
2023-01-05T18:06:27.330Z,10.76
2023-01-05T18:08:57.219Z,10.75
2023-01-05T18:11:27.025Z,10.76
2023-01-05T18:13:56.880Z,10.76
2023-01-05T18:19:00.143Z,10.72
2023-01-05T18:21:29.965Z,10.71
2023-01-05T18:23:59.892Z,10.70
2023-01-05T18:26:29.790Z,10.73
2023-01-05T18:28:59.571Z,10.71
2023-01-05T18:31:33.301Z,10.73
2023-01-05T18:34:03.816Z,10.73
2023-01-05T18:36:33.672Z,10.73
2023-01-05T18:39:03.851Z,10.71
2023-01-05T18:41:33.918Z,10.72
2023-01-05T18:44:03.903Z,10.71
2023-01-05T18:46:40.398Z,10.70
2023-01-05T18:49:11.832Z,10.73
2023-01-05T18:51:42.587Z,10.74
2023-01-05T18:54:14.291Z,10.74
2023-01-05T18:56:44.068Z,10.73
2023-01-05T18:59:15.829Z,10.74
2023-01-05T19:01:48.255Z,10.71
2023-01-05T19:04:19.502Z,10.73
2023-01-05T19:06:49.291Z,10.74
2023-01-05T19:09:19.080Z,10.74
2023-01-05T19:11:50.571Z,10.73
2023-01-05T19:14:20.811Z,10.74
2023-01-05T19:16:54.313Z,10.73
2023-01-05T19:19:24.208Z,10.73
2023-01-05T19:21:55.357Z,10.73
2023-01-05T19:24:28.315Z,10.73
2023-01-05T19:26:58.249Z,10.72
2023-01-05T19:29:47.864Z,10.71
2023-01-05T19:32:20.713Z,10.68
2023-01-05T19:34:50.586Z,10.68
2023-01-05T19:40:09.761Z,10.67
2023-01-05T19:42:40.203Z,10.68
2023-01-05T19:45:11.909Z,10.67
2023-01-05T19:47:44.412Z,10.67
2023-01-05T19:50:15.450Z,10.65
2023-01-05T19:52:45.491Z,10.65
2023-01-05T19:55:18.768Z,10.65
2023-01-05T19:57:48.551Z,10.66
2023-01-05T20:00:19.770Z,10.66
2023-01-05T20:02:52.232Z,10.66
2023-01-05T20:05:22.554Z,10.65
2023-01-05T20:07:52.356Z,10.64
2023-01-05T20:10:23.286Z,10.62
2023-01-05T20:12:54.119Z,10.60
2023-01-05T20:15:24.031Z,10.63
2023-01-05T20:17:56.487Z,10.64
2023-01-05T20:20:26.263Z,10.66
2023-01-05T20:22:56.045Z,10.64
2023-01-05T20:25:25.873Z,10.64
2023-01-05T20:27:55.611Z,10.63
2023-01-05T20:30:25.376Z,10.62
2023-01-05T20:32:57.753Z,10.63
2023-01-05T20:35:27.646Z,10.63
2023-01-05T20:37:57.547Z,10.64
2023-01-05T20:40:27.524Z,10.65
2023-01-05T20:42:57.365Z,10.67
2023-01-05T20:45:27.074Z,10.68
2023-01-05T20:47:59.467Z,10.68
2023-01-05T20:50:29.368Z,10.69
2023-01-05T20:52:59.362Z,10.70
2023-01-05T20:55:29.171Z,10.70
2023-01-05T20:57:59.265Z,10.70
2023-01-05T21:00:29.178Z,10.73
2023-01-05T21:05:56.433Z,10.76
2023-01-05T21:08:26.719Z,10.77
2023-01-05T21:10:57.732Z,10.80
2023-01-05T21:13:31.687Z,10.80
2023-01-05T21:16:04.752Z,10.83
2023-01-05T21:18:37.359Z,10.85
2023-01-05T21:21:08.894Z,10.85
2023-01-05T21:23:39.196Z,10.88
2023-01-05T21:26:13.569Z,10.88
2023-01-05T21:28:46.519Z,10.90
2023-01-05T21:31:18.654Z,10.92
2023-01-05T21:33:51.673Z,10.94
2023-01-05T21:36:25.476Z,10.95
2023-01-05T21:39:01.080Z,10.98
2023-01-05T21:41:45.624Z,10.99
2023-01-05T21:44:17.464Z,10.98
2023-01-05T21:46:47.736Z,11.00
2023-01-05T21:49:31.795Z,11.02
2023-01-05T21:52:13.981Z,11.02
2023-01-05T21:54:58.526Z,11.01
2023-01-05T21:57:28.413Z,11.02
2023-01-05T21:59:58.147Z,11.01
2023-01-05T22:02:27.919Z,11.04
2023-01-05T22:05:00.254Z,11.06
2023-01-05T22:07:30.319Z,11.07
2023-01-05T22:10:00.075Z,11.07
2023-01-05T22:12:29.810Z,11.07
2023-01-05T22:15:00.060Z,11.09
2023-01-05T22:17:30.011Z,11.10
2023-01-05T22:20:02.381Z,11.11
2023-01-05T22:22:32.113Z,11.13
2023-01-05T22:25:01.832Z,11.16
2023-01-05T22:27:32.338Z,11.15
2023-01-05T22:30:02.084Z,11.16
2023-01-05T22:32:31.831Z,11.17
2023-01-05T22:35:04.845Z,11.17
2023-01-05T22:37:34.569Z,11.19
2023-01-05T22:40:04.331Z,11.20
2023-01-05T22:42:34.107Z,11.21
2023-01-05T22:45:03.821Z,11.21
2023-01-05T22:47:33.530Z,11.23
2023-01-05T22:50:05.936Z,11.24
2023-01-05T22:52:35.807Z,11.23
2023-01-05T22:55:05.844Z,11.24
2023-01-05T22:57:35.642Z,11.24
2023-01-05T23:00:05.461Z,11.25
2023-01-05T23:02:35.279Z,11.25
2023-01-05T23:05:09.562Z,11.25
2023-01-05T23:07:39.350Z,11.24
2023-01-05T23:10:10.283Z,11.24
2023-01-05T23:12:40.068Z,11.24
2023-01-05T23:15:11.082Z,11.25
2023-01-05T23:17:40.831Z,11.24
2023-01-05T23:20:14.697Z,11.25
2023-01-05T23:22:44.463Z,11.25
2023-01-05T23:25:14.186Z,11.26
2023-01-05T23:27:43.900Z,11.26
2023-01-05T23:30:14.986Z,11.25
2023-01-05T23:32:44.742Z,11.26
2023-01-05T23:35:17.311Z,11.26
2023-01-05T23:37:47.054Z,11.25
2023-01-05T23:40:16.858Z,11.26
2023-01-05T23:42:46.791Z,11.26
2023-01-05T23:45:17.445Z,11.26
2023-01-05T23:47:47.222Z,11.26
2023-01-05T23:50:19.860Z,11.25
2023-01-05T23:52:49.598Z,11.25
2023-01-05T23:55:19.472Z,11.24
2023-01-05T23:57:49.199Z,11.24
